메인 페이지
METAR-TAF:

METAR-TAF

공항 :

김포국제공항

김포, 대한민국

위도: 37-33N, 경도: 126-48E, 고도: 18m

현재 날씨관측

예보는 30분 전, 17:00시(UTC)에 발표되었습니다.
북북서4kt
온도 6°C
습도 87%
기압 1018 hPa
시정 10km 이상
1500m 미만 상공 구름 및 적란운 없음

METAR: RKSS 171700Z 33004KT CAVOK 06/04 Q1018 NOSIG

시각: 02:30 (17:30 UTC)

예보

예보는 6 시간 30분 전, 11:00시(UTC)에 발표되었습니다.
예보 대상 시간: 17일 12시부터 18일 18시까지 (UTC)
서남서5kt
시정 10km 이상
고도 3000ft 상공 구름 조금
전환 중
17일 13시부터 17일 14시까지 (UTC)
5kt
전환 중
17일 17시부터 17일 18시까지 (UTC)
북북동5kt
전환 중
18일 00시부터 18일 01시까지 (UTC)
고도 3000ft 상공 구름 많음
일시적
18일 05시부터 18일 07시까지 (UTC)
10kt
시정: 6000m
약한비
전환 중
18일 10시부터 18일 11시까지 (UTC)
고도 3000ft 상공 구름 조금

TAF: RKSS 171100Z 1712/1818 24005KT 9999 FEW030 TN06/1721Z TX15/1805Z BECMG 1713/1714 09005KT BECMG 1717/1718 03005KT BECMG 1800/1801 BKN030 TEMPO 1805/1807 09010KT 6000 -RA BECMG 1810/1811 FEW030

4,000개 이상의 공항 관측 자료 및 예보 (METAR 및 TAF 보고).

지도상에서 검색 가능한 기상관측소가 노란 점과 빨간 점으로 표시되어 있습니다.

기상관측소 명을 보려면 표시 위로 마우스를 이동하세요.

날씨 관측과 예보를 보려면 클릭하세요.

지도 변경 : 확대하려면 엑스 표시가 있는 녹색 버튼, 축소하려면 빼기 표시가 있는 녹색 버튼, 다음 페이지의 지도를 보려면 녹색 화살표를 클릭하세요.


METAR-TAF: